CST,Max TemperatureF,Mean TemperatureF,Min TemperatureF,Max Dew PointF,MeanDew PointF,Min DewpointF,Max Humidity, Mean Humidity, Min Humidity, Max Sea Level PressureIn, Mean Sea Level PressureIn, Min Sea Level PressureIn, Max VisibilityMiles, Mean VisibilityMiles, Min VisibilityMiles, Max Wind SpeedMPH, Mean Wind SpeedMPH, Max Gust SpeedMPH,PrecipitationIn, CloudCover, Events, WindDirDegrees
2011-11-1,55,50,45,39,33,29,69,54,43,30.03,29.92,29.87,10,10,10,14,6,22,0.00,4,,124
2011-11-2,50,46,39,34,30,26,65,53,41,30.26,30.17,30.03,10,10,9,14,8,21,0.00,4,Rain,346
2011-11-3,53,42,30,29,24,20,82,56,30,30.34,30.27,30.23,10,10,10,8,4,,0.00,0,,338
2011-11-4,55,41,27,31,25,19,92,58,24,30.28,30.19,30.06,10,10,9,17,5,24,0.00,0,,159
2011-11-5,60,50,41,42,37,32,79,67,48,30.06,29.87,29.72,10,9,6,26,17,37,0.00,1,,161
2011-11-6,54,48,42,43,38,23,82,65,43,29.97,29.68,29.56,10,9,8,24,14,34,0.00,5,,196
2011-11-7,48,41,34,28,23,19,68,51,36,30.25,30.15,30.01,10,10,10,13,9,17,0.00,0,,260
2011-11-8,46,40,33,28,25,21,75,54,39,30.22,30.18,30.14,10,10,7,9,5,,0.00,1,,21
2011-11-9,48,42,35,30,25,21,82,57,36,30.13,30.03,29.97,10,9,2,22,10,34,0.00,3,Snow,317
2011-11-10,39,34,28,29,25,21,78,66,53,30.07,30.02,29.96,10,10,3,17,12,26,0.00,7,Snow,301
2011-11-11,51,40,28,25,23,18,81,52,35,29.95,29.70,29.59,10,10,10,16,6,21,0.00,2,,186
2011-11-12,64,48,32,36,29,22,73,49,19,29.58,29.42,29.19,10,10,10,21,8,26,0.00,0,,186
2011-11-13,48,42,36,34,31,28,79,61,50,29.48,29.31,29.18,10,10,9,14,9,16,0.00,5,,244
2011-11-14,52,43,33,30,26,20,76,54,33,29.63,29.51,29.44,10,10,10,16,9,29,0.00,2,,228
2011-11-15,51,40,30,28,22,15,73,52,36,29.93,29.70,29.52,10,10,10,22,9,36,0.00,1,,266
2011-11-16,37,30,23,17,14,10,68,54,41,30.17,30.09,29.96,10,10,10,23,10,30,0.00,2,,270
2011-11-17,33,22,12,13,9,5,84,54,33,30.22,30.11,29.84,10,10,10,14,8,23,0.00,1,,226
2011-11-18,48,41,34,28,24,16,73,53,42,29.78,29.68,29.62,10,10,10,18,10,23,0.00,2,,184
2011-11-19,35,30,23,27,24,17,88,81,72,30.17,29.86,29.72,10,6,0,17,11,26,0.08,7,Fog-Snow,359
2011-11-20,27,21,15,17,15,12,93,77,64,30.41,30.32,30.21,10,10,7,12,6,,0.00,5,,77
2011-11-21,36,28,19,30,26,17,96,86,78,30.36,30.28,30.22,8,6,3,9,4,,0.00,8,,148
2011-11-22,37,36,34,34,32,30,89,85,81,30.22,30.11,30.04,8,5,2,8,4,,0.00,8,,105
2011-11-23,51,42,32,39,35,30,93,82,61,30.12,30.08,30.01,8,5,2,15,6,21,0.00,2,,194
2011-11-24,60,48,37,43,38,34,89,69,51,29.99,29.82,29.67,10,8,4,16,11,20,0.00,0,,188
2011-11-25,52,48,43,45,42,39,93,79,66,29.69,29.66,29.65,10,8,6,12,8,,0.00,5,,176
2011-11-26,50,44,37,48,40,29,100,87,73,30.07,29.78,29.65,10,6,2,22,9,31,0.04,8,Rain,288
2011-11-27,36,31,26,29,24,21,81,71,66,30.22,30.17,30.07,10,10,10,17,11,31,0.00,8,,332
2011-11-28,37,30,23,27,24,20,88,76,64,30.23,30.14,30.08,10,10,10,15,6,,0.00,0,,203
2011-11-29,39,32,23,25,14,9,72,51,29,30.38,30.27,30.12,10,10,10,10,7,,0.00,0,,332
2011-11-30,39,30,21,28,17,11,85,56,40,30.11,29.99,29.90,10,10,2,9,4,,0.00,4,Snow,243